Time;durP1;ratioP1;P1;durP2;ratioP2;P2;SDS_P1;SDS_P2;PMS_P1;PMS_P2;Temp;Humidity;BMP_temperature;BMP_pressure;BME280_temperature;BME280_humidity;BME280_pressure;Samples;Min_cycle;Max_cycle;Signal;HPM_P1;HPM_P2
2022/08/17 00:00:16;;;;;;;39.60;31.73;;;;;;;32.75;36.94;101071.09;5058132;28;20119;-78
2022/08/17 00:03:04;;;;;;;38.55;30.27;;;;;;;33.06;36.14;101073.41;5071601;28;20484;-78
2022/08/17 00:05:34;;;;;;;43.55;30.58;;;;;;;33.48;35.83;101082.69;5055806;28;20067;-78
2022/08/17 00:08:00;;;;;;;43.55;31.25;;;;;;;33.63;35.79;101064.84;5072182;28;20028;-78
2022/08/17 00:10:26;;;;;;;46.10;35.03;;;;;;;33.23;36.48;101063.53;5063689;28;20024;-78
2022/08/17 00:12:51;;;;;;;46.15;33.25;;;;;;;33.57;35.91;101054.63;5063055;28;20055;-78
2022/08/17 00:15:19;;;;;;;40.15;32.92;;;;;;;33.46;36.27;101065.75;5071268;28;20055;-78
2022/08/17 00:17:47;;;;;;;43.95;33.35;;;;;;;33.35;36.28;101060.59;5063607;28;20435;-78
2022/08/17 00:20:13;;;;;;;48.00;36.70;;;;;;;32.18;38.42;101057.81;5064135;28;20141;-78
2022/08/17 00:22:38;;;;;;;48.78;34.65;;;;;;;32.92;37.34;101055.88;5079674;28;20024;-78
2022/08/17 00:25:08;;;;;;;42.50;35.25;;;;;;;32.59;37.90;101047.44;5060793;28;20025;-78
2022/08/17 00:27:35;;;;;;;45.97;36.00;;;;;;;32.20;38.46;101055.81;5054144;28;20476;-78
2022/08/17 00:30:02;;;;;;;47.55;34.60;;;;;;;32.25;38.40;101042.69;5073224;28;20023;-78
2022/08/17 00:32:28;;;;;;;44.03;35.75;;;;;;;32.25;38.93;101048.09;5071270;28;20021;-78
2022/08/17 00:34:53;;;;;;;46.00;36.97;;;;;;;32.98;37.14;101041.69;5052385;28;20036;-78
2022/08/17 00:37:18;;;;;;;44.60;35.75;;;;;;;32.32;38.87;101052.91;5053780;28;20082;-78
2022/08/17 00:39:44;;;;;;;45.35;35.08;;;;;;;32.48;38.41;101042.25;5071702;28;20084;-78
2022/08/17 00:42:17;;;;;;;46.30;36.75;;;;;;;32.30;38.64;101043.09;5052308;28;20050;-78
2022/08/17 00:44:43;;;;;;;50.28;38.53;;;;;;;32.38;38.63;101041.47;5081369;28;20043;-78
2022/08/17 00:47:09;;;;;;;49.83;36.78;;;;;;;32.56;37.99;101028.81;5063162;28;20372;-78
2022/08/17 00:49:34;;;;;;;44.85;36.42;;;;;;;32.78;37.89;101032.06;5053576;28;20035;-78
2022/08/17 00:52:07;;;;;;;45.30;35.25;;;;;;;32.42;38.10;101029.34;5056932;28;20016;-78
2022/08/17 00:54:37;;;;;;;44.75;35.47;;;;;;;31.51;40.38;101020.09;5068015;28;20020;-78
2022/08/17 00:57:07;;;;;;;45.83;34.42;;;;;;;31.41;40.67;101019.31;5071247;28;20484;-78
2022/08/17 00:59:44;;;;;;;45.10;34.58;;;;;;;31.69;39.65;101020.19;5071336;28;20146;-78
2022/08/17 01:02:13;;;;;;;46.35;34.33;;;;;;;31.56;39.92;101009.72;5088921;28;20020;-78
2022/08/17 01:04:41;;;;;;;41.42;31.40;;;;;;;32.15;38.74;101014.88;5055292;28;20031;-77
2022/08/17 01:07:09;;;;;;;40.25;31.38;;;;;;;31.49;39.88;101021.25;5056461;28;20028;-78
2022/08/17 01:09:34;;;;;;;37.53;29.30;;;;;;;32.67;37.57;101024.16;5071311;28;20094;-78
2022/08/17 01:12:00;;;;;;;42.88;31.88;;;;;;;32.44;38.02;101030.06;5070643;28;20479;-78
2022/08/17 01:14:26;;;;;;;38.88;31.20;;;;;;;32.47;38.07;101030.56;5075444;28;20028;-78
2022/08/17 01:16:54;;;;;;;35.97;28.27;;;;;;;32.59;37.89;101036.59;5072243;28;20028;-78
2022/08/17 01:19:27;;;;;;;36.58;29.17;;;;;;;32.87;37.16;101039.25;5079796;28;20043;-78
2022/08/17 01:22:05;;;;;;;35.92;29.45;;;;;;;32.55;37.65;101048.75;5068442;28;20537;-78
2022/08/17 01:24:30;;;;;;;39.15;28.52;;;;;;;33.25;36.48;101039.03;5064513;28;20112;-78
2022/08/17 01:26:55;;;;;;;34.75;27.77;;;;;;;33.55;35.74;101040.41;5073251;28;20119;-78
2022/08/17 01:29:23;;;;;;;35.45;28.45;;;;;;;32.87;36.62;101039.25;5072268;28;20035;-78
2022/08/17 01:31:52;;;;;;;37.75;27.83;;;;;;;33.72;35.06;101041.31;5058145;28;20480;-78
2022/08/17 01:34:19;;;;;;;41.22;28.83;;;;;;;33.77;35.27;101044.44;5065386;28;20406;-78
2022/08/17 01:36:47;;;;;;;35.85;28.02;;;;;;;32.86;36.54;101042.94;5069829;28;20034;-78
2022/08/17 01:39:39;;;;;;;32.88;26.73;;;;;;;32.73;37.11;101034.41;5057738;28;20028;-78
2022/08/17 01:42:11;;;;;;;32.50;26.73;;;;;;;32.10;37.97;101038.78;5056927;28;20043;-77
2022/08/17 01:44:37;;;;;;;34.25;27.88;;;;;;;32.68;37.16;101039.38;5040249;28;20021;-78
2022/08/17 01:47:02;;;;;;;35.33;28.00;;;;;;;32.28;38.01;101042.38;5050416;28;20029;-78
2022/08/17 01:49:28;;;;;;;33.20;26.25;;;;;;;32.92;36.82;101047.75;5054678;28;20035;-78
2022/08/17 01:51:54;;;;;;;32.50;26.33;;;;;;;33.34;35.62;101084.13;5038658;28;20111;-78
2022/08/17 01:54:20;;;;;;;34.65;26.05;;;;;;;32.09;38.16;101110.06;5055652;28;20468;-78
2022/08/17 01:56:49;;;;;;;40.47;32.90;;;;;;;30.19;42.68;101111.41;5045125;28;20450;-77
2022/08/17 01:59:17;;;;;;;54.28;38.55;;;;;;;29.39;45.67;101120.03;5034689;28;20021;-77
2022/08/17 02:01:43;;;;;;;54.38;40.45;;;;;;;29.09;47.11;101123.47;5041693;28;20032;-77
2022/08/17 02:04:10;;;;;;;54.78;40.15;;;;;;;30.07;43.93;101118.72;5070359;28;20032;-78
2022/08/17 02:06:37;;;;;;;51.15;35.70;;;;;;;30.75;42.03;101091.09;5040434;28;20424;-78
2022/08/17 02:09:04;;;;;;;43.30;34.10;;;;;;;30.53;41.83;101093.06;5053083;28;20023;-78
2022/08/17 02:11:37;;;;;;;42.47;32.47;;;;;;;30.54;42.05;101084.00;5065327;28;20021;-78
2022/08/17 02:14:03;;;;;;;40.40;30.08;;;;;;;31.40;40.01;101090.50;5036044;28;20107;-78
2022/08/17 02:16:34;;;;;;;42.03;29.35;;;;;;;30.41;41.75;101110.31;5058967;28;20057;-77
2022/08/17 02:19:00;;;;;;;47.20;34.90;;;;;;;30.61;41.28;101114.78;5067548;28;20503;-78
2022/08/17 02:21:26;;;;;;;43.92;32.65;;;;;;;29.51;42.92;101134.28;5040135;28;20119;-77
2022/08/17 02:23:51;;;;;;;41.40;30.92;;;;;;;29.51;42.68;101150.44;5069339;28;20029;-77
2022/08/17 02:26:17;;;;;;;41.35;30.35;;;;;;;29.16;42.79;101167.72;5046747;28;20025;-78
2022/08/17 02:28:42;;;;;;;38.35;29.98;;;;;;;28.78;43.45;101174.44;5051611;28;20090;-77
2022/08/17 02:31:11;;;;;;;37.78;29.15;;;;;;;30.52;40.12;101180.34;5035122;28;20767;-78
2022/08/17 02:33:37;;;;;;;39.10;28.52;;;;;;;30.36;40.43;101161.09;5054923;28;20094;-78
2022/08/17 02:36:05;;;;;;;41.65;27.13;;;;;;;29.35;42.82;101144.66;5037340;28;20369;-77
2022/08/17 02:38:30;;;;;;;32.95;26.55;;;;;;;29.47;42.94;101153.53;5051005;28;20503;-78
2022/08/17 02:40:57;;;;;;;38.47;25.50;;;;;;;29.06;45.17;101164.09;5048045;28;20056;-79
2022/08/17 02:43:23;;;;;;;43.97;28.73;;;;;;;28.68;46.79;101151.97;5052589;28;20558;-77
2022/08/17 02:45:49;;;;;;;39.53;29.23;;;;;;;27.52;49.82;101152.97;5049782;28;20039;-77
2022/08/17 02:48:14;;;;;;;45.42;32.70;;;;;;;28.71;48.63;101154.41;5034669;28;20480;-79
2022/08/17 02:50:40;;;;;;;44.97;29.98;;;;;;;28.64;48.32;101150.50;5046957;28;20557;-79
2022/08/17 02:53:05;;;;;;;41.53;29.63;;;;;;;28.13;50.73;101144.66;5040883;28;20016;-79
2022/08/17 02:55:36;;;;;;;45.67;31.48;;;;;;;28.10;50.95;101134.19;5037027;28;20025;-80
2022/08/17 02:58:03;;;;;;;40.85;29.02;;;;;;;28.21;51.55;101127.94;5055984;28;20480;-79
2022/08/17 03:00:39;;;;;;;42.63;28.65;;;;;;;28.33;50.79;101126.09;5049803;28;20055;-79
2022/08/17 03:03:07;;;;;;;37.22;25.92;;;;;;;28.65;49.45;101125.34;5046205;28;20036;-75
2022/08/17 03:05:35;;;;;;;39.95;27.10;;;;;;;27.69;53.75;101106.03;5071603;28;20024;-76
2022/08/17 03:08:01;;;;;;;42.40;27.40;;;;;;;28.22;53.82;101109.00;5041329;28;20029;-73
2022/08/17 03:10:26;;;;;;;47.55;29.65;;;;;;;29.05;50.23;101108.56;5037225;28;20025;-74
2022/08/17 03:12:52;;;;;;;44.17;31.13;;;;;;;28.21;53.69;101109.13;5069844;28;20111;-74
2022/08/17 03:15:28;;;;;;;41.65;27.77;;;;;;;27.66;55.58;101108.97;5045693;28;20025;-76
2022/08/17 03:17:55;;;;;;;44.22;27.95;;;;;;;27.58;56.17;101107.72;5034746;28;20033;-77
2022/08/17 03:20:21;;;;;;;44.10;27.90;;;;;;;27.84;56.09;101104.81;5034943;28;20024;-77
2022/08/17 03:22:50;;;;;;;39.40;25.33;;;;;;;28.10;54.76;101093.88;5058264;28;20037;-76
2022/08/17 03:25:19;;;;;;;39.70;25.02;;;;;;;28.10;55.54;101093.88;5048326;28;20119;-75
2022/08/17 03:27:44;;;;;;;42.55;25.65;;;;;;;27.99;55.87;101091.16;5058593;28;20085;-77
2022/08/17 03:30:12;;;;;;;43.67;25.80;;;;;;;28.04;56.02;101099.72;5048088;28;20115;-76
2022/08/17 03:32:43;;;;;;;34.53;24.95;;;;;;;28.15;53.83;101097.06;5034403;28;20154;-76
2022/08/17 03:35:11;;;;;;;39.10;25.92;;;;;;;27.98;54.83;101110.94;5063180;28;20043;-76
2022/08/17 03:37:36;;;;;;;42.28;27.52;;;;;;;28.55;52.78;101120.69;5049573;28;20032;-76
2022/08/17 03:40:03;;;;;;;47.05;28.17;;;;;;;28.75;52.30;101121.75;5039295;28;20024;-76
2022/08/17 03:42:29;;;;;;;41.78;29.58;;;;;;;29.13;51.17;101111.47;5034075;28;20065;-75
2022/08/17 03:44:56;;;;;;;40.25;28.60;;;;;;;29.35;49.75;101104.28;5049390;28;20101;-75
2022/08/17 03:58:22;;;;;;;38.50;26.63;;;;;;;28.93;51.92;101108.63;5056550;28;20083;-76
2022/08/17 04:00:48;;;;;;;41.35;27.05;;;;;;;27.38;57.98;101113.78;5068001;28;20056;-76
2022/08/17 04:03:14;;;;;;;50.53;30.13;;;;;;;28.97;53.69;101093.06;5052684;28;20132;-72
2022/08/17 04:05:40;;;;;;;43.17;27.67;;;;;;;28.49;55.35;101105.03;5051936;28;20124;-72
2022/08/17 04:08:07;;;;;;;42.65;28.90;;;;;;;29.15;53.72;101101.41;5065520;28;20029;-73
2022/08/17 04:10:33;;;;;;;43.85;28.80;;;;;;;29.67;51.76;101096.09;5040118;28;20465;-72
2022/08/17 04:12:59;;;;;;;49.10;29.73;;;;;;;28.02;56.61;101080.22;5032640;28;20032;-73
2022/08/17 04:15:25;;;;;;;42.47;27.80;;;;;;;27.21;61.33;101081.00;5049866;28;20029;-73
2022/08/17 04:17:51;;;;;;;42.58;27.73;;;;;;;28.05;57.76;101070.06;5031670;28;20024;-74
2022/08/17 04:20:19;;;;;;;38.47;27.73;;;;;;;27.85;59.06;101058.22;5032847;28;20036;-74
2022/08/17 04:22:58;;;;;;;45.30;27.20;;;;;;;27.21;62.56;101043.44;5037611;28;20033;-74
2022/08/17 04:25:26;;;;;;;40.22;28.40;;;;;;;26.85;64.96;101052.50;5061618;28;20024;-74
2022/08/17 04:27:52;;;;;;;49.08;32.28;;;;;;;27.46;61.62;101052.31;5042300;28;20461;-75
2022/08/17 04:30:17;;;;;;;45.70;30.98;;;;;;;26.86;64.78;101060.44;5062360;28;20066;-75
2022/08/17 04:32:57;;;;;;;48.13;30.40;;;;;;;27.15;64.75;101064.53;5037363;28;20099;-75
2022/08/17 04:35:26;;;;;;;52.17;30.98;;;;;;;26.65;67.60;101067.34;5049150;28;20029;-73
2022/08/17 04:37:51;;;;;;;50.40;34.45;;;;;;;27.02;66.29;101059.25;5030165;28;20570;-72
2022/08/17 04:43:06;;;;;;;48.50;31.73;;;;;;;26.84;67.19;101048.94;5074915;28;20577;-74
2022/08/17 04:45:32;;;;;;;53.22;32.95;;;;;;;27.15;67.38;101038.56;5041374;28;20021;-75
2022/08/17 04:47:57;;;;;;;59.85;35.75;;;;;;;27.53;65.76;101036.59;5044507;28;20031;-75
2022/08/17 04:50:22;;;;;;;50.58;33.95;;;;;;;27.10;65.78;101030.03;5045814;28;20028;-75
2022/08/17 04:52:48;;;;;;;52.85;33.45;;;;;;;27.02;66.12;101032.44;5062604;28;20027;-76
2022/08/17 04:55:14;;;;;;;47.45;31.42;;;;;;;27.08;64.50;101018.56;5045998;28;20021;-75
2022/08/17 04:57:39;;;;;;;58.60;32.67;;;;;;;28.47;57.51;101031.75;5037132;28;20495;-76
2022/08/17 05:00:05;;;;;;;48.42;32.45;;;;;;;29.00;54.46;101032.75;5063172;28;20020;-77
2022/08/17 05:02:31;;;;;;;46.25;32.88;;;;;;;28.71;56.19;101041.47;5040380;28;20407;-77
2022/08/17 05:04:56;;;;;;;47.42;31.88;;;;;;;28.23;57.59;101042.69;5046772;28;20032;-77
2022/08/17 05:07:22;;;;;;;45.08;32.38;;;;;;;28.10;58.91;101040.16;5041870;28;20032;-77
2022/08/17 05:09:47;;;;;;;47.22;32.33;;;;;;;27.74;61.67;101044.78;5044254;28;20043;-75
2022/08/17 05:12:14;;;;;;;44.30;30.67;;;;;;;27.51;61.35;101042.06;5035567;28;20020;-75
2022/08/17 05:14:39;;;;;;;40.13;29.17;;;;;;;28.35;58.09;101048.88;5045399;28;20024;-75
2022/08/17 05:17:05;;;;;;;46.58;30.80;;;;;;;28.18;56.78;101048.44;5039650;28;20104;-74
2022/08/17 05:19:30;;;;;;;48.53;30.80;;;;;;;28.53;54.87;101050.03;5039616;28;20550;-75
2022/08/17 05:21:56;;;;;;;41.15;29.20;;;;;;;28.82;54.56;101038.72;5037007;28;20398;-75
2022/08/17 05:24:21;;;;;;;38.75;28.58;;;;;;;28.51;56.02;101046.66;5044790;28;20075;-76
2022/08/17 05:26:46;;;;;;;43.08;31.08;;;;;;;28.95;52.63;101052.00;5055439;28;20392;-76
2022/08/17 05:29:12;;;;;;;45.78;32.65;;;;;;;28.21;54.46;101058.94;5045857;28;20459;-75
2022/08/17 05:31:37;;;;;;;42.58;28.60;;;;;;;28.50;55.61;101055.69;5071161;28;20479;-76
2022/08/17 05:34:02;;;;;;;39.50;28.23;;;;;;;28.39;54.42;101063.78;5065705;28;20055;-76
2022/08/17 05:36:28;;;;;;;36.80;27.92;;;;;;;27.35;59.83;101076.41;5060168;28;20039;-76
2022/08/17 05:38:53;;;;;;;39.97;26.98;;;;;;;29.31;52.48;101067.84;5042609;28;20048;-76
2022/08/17 05:41:18;;;;;;;38.83;28.42;;;;;;;29.24;52.60;101073.75;5063700;28;20131;-77
2022/08/17 05:43:44;;;;;;;48.50;32.05;;;;;;;28.66;53.73;101086.69;5073902;28;20114;-76
2022/08/17 05:46:23;;;;;;;38.20;27.98;;;;;;;29.65;51.19;101086.44;5068720;28;20123;-76
2022/08/17 05:48:52;;;;;;;38.85;28.13;;;;;;;29.69;50.90;101093.28;5063947;28;20040;-77
2022/08/17 05:51:40;;;;;;;43.47;28.33;;;;;;;29.54;49.92;101096.34;5056773;28;20051;-76
2022/08/17 05:54:24;;;;;;;37.75;27.67;;;;;;;29.29;52.09;101102.94;5069533;28;20166;-76
2022/08/17 05:57:22;;;;;;;37.20;27.20;;;;;;;29.34;51.50;101099.88;5068281;28;20039;-77
2022/08/17 05:59:57;;;;;;;41.95;28.70;;;;;;;29.56;51.63;101097.03;5061676;28;20371;-76
2022/08/17 06:03:00;;;;;;;40.38;30.25;;;;;;;28.94;53.56;101104.94;5071909;28;20042;-77
2022/08/17 06:05:34;;;;;;;40.67;29.52;;;;;;;30.07;49.59;101097.16;5073562;28;20385;-77
2022/08/17 06:08:05;;;;;;;40.35;27.85;;;;;;;28.63;55.57;101100.38;5064296;28;20024;-78
2022/08/17 06:10:45;;;;;;;36.92;27.33;;;;;;;28.76;54.57;101091.19;5066604;28;20502;-77
2022/08/17 06:13:16;;;;;;;41.38;29.23;;;;;;;28.81;53.39;101098.88;5091544;28;20012;-77
2022/08/17 06:15:50;;;;;;;44.10;32.50;;;;;;;30.35;49.11;101097.38;5062183;28;20040;-78
2022/08/17 06:18:20;;;;;;;49.00;32.80;;;;;;;30.17;48.88;101092.69;5058202;28;20481;-78
2022/08/17 06:20:53;;;;;;;40.03;30.08;;;;;;;30.63;48.54;101093.91;5056611;28;20048;-78
2022/08/17 06:23:44;;;;;;;40.47;30.75;;;;;;;30.25;48.89;101090.16;5085730;28;20029;-78
2022/08/17 06:26:19;;;;;;;43.88;29.02;;;;;;;29.94;50.84;101095.56;5071799;28;20078;-78
2022/08/17 06:29:01;;;;;;;42.90;28.77;;;;;;;29.79;50.67;101094.19;5064287;28;20028;-79
2022/08/17 06:31:32;;;;;;;36.00;26.17;;;;;;;28.84;53.11;101104.00;5068230;28;20510;-79
2022/08/17 06:34:01;;;;;;;39.28;26.50;;;;;;;28.89;54.33;101109.00;5069800;28;20273;-78
2022/08/17 06:36:56;;;;;;;38.25;26.33;;;;;;;29.33;51.25;101108.94;5057692;28;20025;-77
2022/08/17 06:39:48;;;;;;;39.35;25.65;;;;;;;28.50;56.87;101112.13;5072495;28;20037;-77
2022/08/17 06:42:17;;;;;;;32.70;24.90;;;;;;;28.19;56.17;101117.31;5039279;28;20052;-78
2022/08/17 06:44:52;;;;;;;35.20;24.60;;;;;;;28.48;56.43;101130.22;5035082;28;20041;-76
2022/08/17 06:47:27;;;;;;;36.83;27.65;;;;;;;28.37;58.21;101128.41;5037728;28;20029;-76
2022/08/17 06:50:26;;;;;;;32.78;25.05;;;;;;;28.54;55.04;101132.41;5037377;28;20039;-75
2022/08/17 06:53:28;;;;;;;38.05;27.17;;;;;;;28.15;59.69;101142.72;5045295;28;20443;-76
2022/08/17 06:56:09;;;;;;;39.53;25.52;;;;;;;26.72;67.68;101149.06;5039332;28;20111;-76
2022/08/17 06:58:36;;;;;;;32.05;25.13;;;;;;;27.84;61.08;101142.41;5035146;28;20028;-76
2022/08/17 07:01:11;;;;;;;32.03;23.63;;;;;;;26.97;67.08;101163.34;5052380;28;20558;-76
2022/08/17 07:03:53;;;;;;;37.95;25.88;;;;;;;28.05;59.17;101152.47;5033925;28;20029;-77
2022/08/17 07:06:34;;;;;;;37.33;25.13;;;;;;;29.04;55.64;101149.91;5036134;28;20029;-77
2022/08/17 07:09:06;;;;;;;36.25;26.63;;;;;;;29.69;51.40;101160.59;5035782;28;20031;-77
2022/08/17 07:11:54;;;;;;;38.63;28.25;;;;;;;29.17;54.85;101164.03;5035364;28;20035;-75
2022/08/17 07:14:38;;;;;;;35.53;27.02;;;;;;;28.27;57.77;101163.25;5051605;28;20029;-77
2022/08/17 07:17:12;;;;;;;35.08;24.70;;;;;;;28.36;57.71;101163.47;5036089;28;20041;-76
2022/08/17 07:19:40;;;;;;;38.30;27.17;;;;;;;29.04;54.55;101163.34;5036975;28;20033;-76
2022/08/17 07:22:40;;;;;;;36.15;27.52;;;;;;;29.17;52.86;101169.41;5037958;28;20094;-77
2022/08/17 07:25:09;;;;;;;38.72;25.00;;;;;;;27.55;59.80;101160.81;5037486;28;20041;-77
2022/08/17 07:27:44;;;;;;;37.92;25.83;;;;;;;28.72;56.96;101164.19;5055685;28;20025;-76
2022/08/17 07:30:16;;;;;;;37.25;24.90;;;;;;;29.75;52.46;101169.00;5077159;28;20099;-76
2022/08/17 07:32:48;;;;;;;37.88;26.85;;;;;;;30.46;51.02;101172.81;5053256;28;20060;-77
2022/08/17 07:35:19;;;;;;;34.70;24.63;;;;;;;29.42;51.93;101167.38;5036903;28;20032;-77
2022/08/17 07:37:51;;;;;;;34.33;24.73;;;;;;;31.05;47.84;101175.63;5035393;28;20896;-77
2022/08/17 07:40:30;;;;;;;35.38;25.17;;;;;;;29.25;53.61;101180.44;5038829;28;20032;-77
2022/08/17 07:43:05;;;;;;;33.10;24.50;;;;;;;30.60;49.86;101180.50;5052531;28;20074;-75
2022/08/17 07:48:20;;;;;;;31.33;23.60;;;;;;;32.42;46.07;101178.09;5053899;28;20036;-76
2022/08/17 07:50:47;;;;;;;24.83;19.33;;;;;;;30.99;47.61;101185.09;5039563;28;20025;-76
2022/08/17 07:53:21;;;;;;;26.80;19.05;;;;;;;32.05;45.76;101192.44;5038246;28;20020;-78
2022/08/17 07:55:46;;;;;;;21.20;17.65;;;;;;;31.79;45.61;101190.38;5056378;28;20028;-79
2022/08/17 07:58:22;;;;;;;19.20;15.38;;;;;;;31.72;44.83;101197.38;5034678;28;20037;-78
2022/08/17 08:01:08;;;;;;;22.40;16.38;;;;;;;31.23;46.07;101195.53;5034442;28;20580;-77
2022/08/17 08:03:40;;;;;;;22.88;16.15;;;;;;;30.35;47.42;101191.72;5033228;28;20032;-76
2022/08/17 08:06:19;;;;;;;23.00;17.17;;;;;;;29.41;50.63;101187.19;5052100;28;20056;-78
2022/08/17 08:08:50;;;;;;;21.15;16.25;;;;;;;31.39;46.88;101186.00;5034233;28;20025;-77
2022/08/17 08:11:29;;;;;;;19.85;16.85;;;;;;;30.95;47.70;101194.47;5035708;28;20037;-78
2022/08/17 08:14:24;;;;;;;24.90;17.25;;;;;;;32.17;44.18;101188.59;5038016;28;20021;-77
2022/08/17 08:16:59;;;;;;;22.08;16.10;;;;;;;31.73;44.90;101188.28;5060340;28;20032;-77
2022/08/17 08:19:26;;;;;;;20.35;16.35;;;;;;;31.90;44.05;101192.94;5048246;28;20029;-77
2022/08/17 08:22:02;;;;;;;23.52;18.75;;;;;;;31.91;44.55;101193.75;5056002;28;20078;-78
2022/08/17 08:25:22;;;;;;;26.42;18.63;;;;;;;31.34;45.57;101199.06;5056497;28;20559;-79
2022/08/17 08:28:19;;;;;;;22.88;18.05;;;;;;;31.70;45.18;101192.09;4973537;28;20118;-78
2022/08/17 08:30:51;;;;;;;23.00;18.67;;;;;;;31.76;45.15;101202.31;5059969;28;20029;-79
2022/08/17 08:33:30;;;;;;;23.60;19.38;;;;;;;30.43;50.15;101200.00;5042301;28;20013;-79
2022/08/17 08:36:09;;;;;;;23.27;19.65;;;;;;;31.86;45.71;101198.75;5043508;28;20076;-79
2022/08/17 08:39:01;;;;;;;25.65;20.00;;;;;;;30.89;47.03;101211.25;5046566;28;20036;-78
2022/08/17 08:41:39;;;;;;;23.60;18.60;;;;;;;31.30;45.76;101215.56;5038509;28;20074;-78
2022/08/17 08:44:34;;;;;;;22.55;18.05;;;;;;;30.50;47.66;101222.78;5069941;28;20129;-78
2022/08/17 08:47:13;;;;;;;21.35;16.48;;;;;;;30.73;46.25;101211.75;5090655;28;20048;-78
2022/08/17 08:49:48;;;;;;;20.90;17.85;;;;;;;31.23;46.20;101214.44;5057632;28;20409;-79
2022/08/17 08:52:34;;;;;;;19.52;17.35;;;;;;;29.69;47.45;101217.16;5067875;28;20028;-79
2022/08/17 08:55:23;;;;;;;18.88;16.73;;;;;;;29.31;50.53;101218.59;5074683;28;20506;-79
2022/08/17 08:58:01;;;;;;;22.77;16.98;;;;;;;30.17;47.68;101215.78;5057269;28;20062;-78
2022/08/17 09:00:34;;;;;;;21.27;17.70;;;;;;;29.93;48.59;101208.84;5088385;28;20154;-78
2022/08/17 09:03:09;;;;;;;20.48;17.23;;;;;;;30.79;47.24;101211.22;5073024;28;20128;-78
2022/08/17 09:06:05;;;;;;;24.25;17.27;;;;;;;30.69;47.56;101210.34;5057081;28;20025;-78
2022/08/17 09:08:34;;;;;;;18.55;16.15;;;;;;;30.34;48.47;101211.63;5063819;28;20035;-78
2022/08/17 09:11:10;;;;;;;19.92;17.15;;;;;;;30.31;47.54;101220.81;5094771;28;20510;-78
2022/08/17 09:13:49;;;;;;;17.95;15.30;;;;;;;29.83;48.52;101224.94;5065324;28;20054;-78
2022/08/17 09:16:21;;;;;;;14.43;13.02;;;;;;;29.35;49.92;101236.19;5075552;28;20029;-78
2022/08/17 09:18:54;;;;;;;83.35;58.75;;;;;;;29.08;50.51;101234.75;5076971;28;20029;-78
2022/08/17 09:21:31;;;;;;;175.63;125.22;;;;;;;29.14;51.41;101234.28;5076301;28;20024;-78
2022/08/17 09:24:38;;;;;;;36.47;25.73;;;;;;;29.59;49.55;101234.13;5075405;28;20032;-78
2022/08/17 09:27:14;;;;;;;12.20;11.00;;;;;;;29.76;49.91;101238.06;5003225;28;20068;-78
2022/08/17 09:29:57;;;;;;;13.82;11.10;;;;;;;29.70;49.22;101243.13;5068216;28;20024;-77
2022/08/17 09:32:48;;;;;;;12.88;10.98;;;;;;;30.47;48.07;101232.97;5065762;28;20081;-78
2022/08/17 09:35:18;;;;;;;10.90;9.90;;;;;;;30.02;47.22;101239.53;5055901;28;20033;-78
2022/08/17 09:38:04;;;;;;;11.75;10.57;;;;;;;31.46;44.88;101243.84;5056705;28;20473;-77
2022/08/17 09:40:37;;;;;;;9.60;8.57;;;;;;;29.84;49.73;101248.19;5055087;28;20033;-78
2022/08/17 09:43:21;;;;;;;9.80;8.80;;;;;;;29.61;48.94;101244.75;5039120;28;20499;-77
2022/08/17 09:46:00;;;;;;;9.40;8.50;;;;;;;29.93;48.35;101230.41;5058756;28;20043;-78
2022/08/17 09:48:41;;;;;;;10.75;8.60;;;;;;;29.52;50.04;101238.28;5069374;28;20021;-77
2022/08/17 09:51:14;;;;;;;9.85;8.85;;;;;;;29.54;48.83;101241.72;5057561;28;20071;-77
2022/08/17 09:53:39;;;;;;;9.48;8.48;;;;;;;30.40;47.11;101248.81;5046031;28;20024;-78
2022/08/17 09:56:14;;;;;;;9.57;8.40;;;;;;;29.43;49.14;101249.88;5035021;28;20070;-78
2022/08/17 09:58:55;;;;;;;10.02;8.98;;;;;;;30.55;47.01;101241.25;5036029;28;20052;-78
2022/08/17 10:01:51;;;;;;;9.45;8.52;;;;;;;30.53;46.03;101244.06;5065523;28;20485;-78
2022/08/17 10:04:41;;;;;;;10.23;8.30;;;;;;;29.04;49.92;101244.91;5055611;28;20060;-77
2022/08/17 10:07:26;;;;;;;8.32;7.07;;;;;;;29.59;47.60;101235.94;5034880;28;20032;-78
2022/08/17 10:10:13;;;;;;;8.18;7.38;;;;;;;29.94;47.41;101232.97;5052654;28;20037;-78
2022/08/17 10:12:50;;;;;;;9.90;8.18;;;;;;;30.41;45.80;101227.09;5039830;28;20094;-77
2022/08/17 10:15:47;;;;;;;7.97;7.18;;;;;;;30.07;46.66;101237.28;5041266;28;20025;-78
2022/08/17 10:18:29;;;;;;;8.10;6.80;;;;;;;30.20;46.97;101237.06;5043527;28;20469;-77
2022/08/17 10:26:40;;;;;;;10.95;8.73;;;;;;;32.11;43.30;101256.75;5053270;28;20055;-78
2022/08/17 10:29:10;;;;;;;9.93;8.73;;;;;;;30.78;45.21;101260.78;5035652;28;20021;-77
2022/08/17 10:31:44;;;;;;;10.90;9.00;;;;;;;30.93;45.15;101262.09;5035852;28;20499;-78
2022/08/17 10:34:18;;;;;;;12.52;10.27;;;;;;;31.01;44.92;101265.94;5071402;28;20035;-77
2022/08/17 10:37:06;;;;;;;14.38;10.18;;;;;;;30.09;45.52;101263.13;5068499;28;20033;-77
2022/08/17 10:39:42;;;;;;;13.60;10.98;;;;;;;30.44;46.58;101266.44;5054044;28;20531;-77
2022/08/17 10:42:30;;;;;;;14.98;10.45;;;;;;;30.21;46.36;101261.22;5068162;28;20083;-77
2022/08/17 10:45:16;;;;;;;15.00;10.52;;;;;;;30.77;45.35;101264.44;5053973;28;20036;-77
2022/08/17 10:48:19;;;;;;;11.40;10.20;;;;;;;32.12;42.76;101266.53;5054693;28;20029;-78
2022/08/17 10:50:54;;;;;;;13.80;10.55;;;;;;;31.28;44.02;101266.16;5038455;28;20042;-78
2022/08/17 10:53:31;;;;;;;13.30;10.70;;;;;;;30.99;46.01;101267.94;5053827;28;20082;-78
2022/08/17 10:56:12;;;;;;;12.20;10.95;;;;;;;31.92;43.08;101269.28;5055753;28;20434;-78
2022/08/17 10:58:54;;;;;;;16.38;11.48;;;;;;;30.95;44.65;101265.50;5084174;28;20020;-78
2022/08/17 11:01:21;;;;;;;13.18;10.57;;;;;;;30.25;47.24;101265.34;5074364;28;20066;-78
2022/08/17 11:03:53;;;;;;;13.35;11.18;;;;;;;31.42;44.43;101272.13;5074640;28;20031;-77
2022/08/17 11:06:37;;;;;;;13.07;11.23;;;;;;;31.80;43.66;101273.16;5067158;28;20032;-78
2022/08/17 11:09:46;;;;;;;13.25;11.75;;;;;;;31.25;43.54;101270.97;5071379;28;20036;-77
2022/08/17 11:12:25;;;;;;;17.20;11.80;;;;;;;32.44;41.88;101278.88;5062006;28;20086;-78
2022/08/17 11:14:56;;;;;;;13.48;11.55;;;;;;;31.75;43.00;101291.63;5054598;28;20033;-78
2022/08/17 11:18:00;;;;;;;14.65;11.80;;;;;;;31.14;45.32;101296.25;5063852;28;20028;-78
2022/08/17 11:20:29;;;;;;;14.68;12.73;;;;;;;30.47;45.20;101295.84;5061020;28;20078;-78
2022/08/17 11:23:28;;;;;;;13.70;12.25;;;;;;;31.24;45.30;101302.53;5056974;28;20020;-77
2022/08/17 11:25:56;;;;;;;15.65;13.23;;;;;;;31.55;43.82;101310.50;5066900;28;20032;-78
2022/08/17 11:28:34;;;;;;;17.85;13.75;;;;;;;32.50;42.13;101305.31;5067808;28;20030;-78
2022/08/17 11:31:22;;;;;;;17.35;14.80;;;;;;;32.32;42.98;101301.69;5057689;28;20043;-78
2022/08/17 11:33:57;;;;;;;24.73;15.57;;;;;;;31.90;43.17;101305.56;5075400;28;20077;-77
2022/08/17 11:36:47;;;;;;;21.65;16.27;;;;;;;30.80;44.82;101304.63;5063926;28;20031;-77
2022/08/17 11:39:49;;;;;;;20.10;16.63;;;;;;;32.01;43.25;101304.56;5089839;28;20526;-77
2022/08/17 11:42:56;;;;;;;20.00;17.73;;;;;;;31.23;45.59;101300.81;5070636;28;20044;-75
2022/08/17 11:45:45;;;;;;;24.65;18.20;;;;;;;30.92;46.64;101298.16;5054830;28;20082;-75
2022/08/17 11:52:00;;;;;;;23.33;19.33;;;;;;;31.85;45.74;101283.50;5031888;28;20047;-74
2022/08/17 11:54:28;;;;;;;23.42;17.10;;;;;;;31.13;45.92;101281.91;5053092;28;20336;-74
2022/08/17 11:56:55;;;;;;;25.17;18.98;;;;;;;31.41;45.56;101275.84;5051474;28;20433;-75
2022/08/17 11:59:37;;;;;;;21.60;16.75;;;;;;;30.59;46.49;101273.19;5054322;28;20025;-75
2022/08/17 12:02:29;;;;;;;22.38;17.55;;;;;;;31.01;45.95;101276.72;5069040;28;20038;-75
2022/08/17 12:05:13;;;;;;;23.02;17.48;;;;;;;29.81;49.74;101272.69;5070510;28;20115;-75